Time;durP1;ratioP1;P1;durP2;ratioP2;P2;SDS_P1;SDS_P2;PMS_P1;PMS_P2;Temp;Humidity;BMP_temperature;BMP_pressure;BME280_temperature;BME280_humidity;BME280_pressure;Samples;Min_cycle;Max_cycle;Signal;HPM_P1;HPM_P2
2022/12/28 00:00:21;;;;;;;7.75;3.40;;;7.70;99.90;;;;;;5068445;28;20040;-71
2022/12/28 00:02:47;;;;;;;7.78;3.20;;;7.70;99.90;;;;;;5072494;28;20027;-70
2022/12/28 00:05:13;;;;;;;8.45;3.47;;;7.80;99.90;;;;;;5065745;28;20033;-70
2022/12/28 00:07:38;;;;;;;10.05;3.10;;;7.80;99.90;;;;;;5064827;28;20032;-71
2022/12/28 00:10:04;;;;;;;5.40;3.50;;;7.80;99.90;;;;;;5071312;28;20446;-72
2022/12/28 00:12:31;;;;;;;8.88;3.17;;;7.80;99.90;;;;;;5062235;28;20048;-70
2022/12/28 00:14:58;;;;;;;8.88;3.53;;;7.80;99.90;;;;;;5063140;28;20025;-71
2022/12/28 00:17:23;;;;;;;4.47;2.80;;;7.80;99.90;;;;;;5097163;28;20040;-71
2022/12/28 00:19:49;;;;;;;5.22;3.15;;;7.80;99.90;;;;;;5067552;28;20508;-72
2022/12/28 00:22:15;;;;;;;8.48;4.40;;;7.80;99.90;;;;;;5072209;28;20077;-71
2022/12/28 00:24:40;;;;;;;6.70;3.20;;;7.80;99.90;;;;;;5070307;28;20028;-71
2022/12/28 00:27:06;;;;;;;9.48;3.90;;;7.80;99.90;;;;;;5067197;28;20032;-71
2022/12/28 00:29:32;;;;;;;7.72;4.05;;;7.80;99.90;;;;;;5064303;28;20047;-71
2022/12/28 00:31:57;;;;;;;7.78;3.58;;;7.90;99.90;;;;;;5061448;28;20090;-71
2022/12/28 00:34:23;;;;;;;8.73;4.30;;;7.90;99.90;;;;;;5071246;28;20031;-70
2022/12/28 00:36:50;;;;;;;12.68;4.32;;;7.80;99.90;;;;;;5070484;28;20064;-71
2022/12/28 00:39:16;;;;;;;5.85;3.28;;;7.80;99.90;;;;;;5067548;28;20376;-71
2022/12/28 00:41:42;;;;;;;7.53;3.53;;;7.80;99.90;;;;;;5063315;28;20458;-70
2022/12/28 00:44:08;;;;;;;8.48;3.85;;;7.80;99.90;;;;;;5067295;28;20103;-70
2022/12/28 00:46:34;;;;;;;5.75;3.25;;;7.90;99.90;;;;;;5069067;28;20029;-70
2022/12/28 00:48:59;;;;;;;11.27;4.22;;;7.90;99.90;;;;;;5066178;28;20059;-70
2022/12/28 00:51:25;;;;;;;9.82;4.15;;;7.90;99.90;;;;;;5064914;28;20044;-70
2022/12/28 00:53:51;;;;;;;6.93;3.58;;;7.90;99.90;;;;;;5060709;28;20033;-70
2022/12/28 00:56:20;;;;;;;7.07;3.67;;;7.80;99.90;;;;;;5075722;28;20068;-70
2022/12/28 00:58:45;;;;;;;5.20;3.45;;;7.90;99.90;;;;;;5069826;28;20120;-71
2022/12/28 01:01:19;;;;;;;7.63;3.38;;;7.90;99.90;;;;;;5066570;28;20116;-71
2022/12/28 01:03:45;;;;;;;6.18;3.58;;;7.80;99.90;;;;;;5069551;28;20025;-71
2022/12/28 01:06:13;;;;;;;6.65;3.58;;;7.90;99.90;;;;;;5064126;28;20532;-70
2022/12/28 01:08:39;;;;;;;5.90;3.45;;;7.80;99.90;;;;;;5063017;28;20033;-70
2022/12/28 01:11:10;;;;;;;7.05;3.67;;;7.80;99.90;;;;;;5073110;28;20036;-70
2022/12/28 01:13:37;;;;;;;6.63;3.38;;;7.80;99.90;;;;;;5063741;28;20036;-71
2022/12/28 01:16:19;;;;;;;6.95;3.30;;;7.80;99.90;;;;;;5065701;28;20098;-71
2022/12/28 01:18:45;;;;;;;7.70;3.97;;;7.80;99.90;;;;;;5061815;28;20039;-71
2022/12/28 01:21:13;;;;;;;7.72;3.55;;;7.80;99.90;;;;;;5065740;28;20024;-71
2022/12/28 01:23:39;;;;;;;9.30;3.47;;;7.90;99.90;;;;;;5067440;28;20041;-70
2022/12/28 01:26:05;;;;;;;8.50;3.15;;;7.90;99.90;;;;;;5068564;28;20020;-71
2022/12/28 01:28:31;;;;;;;7.35;3.20;;;7.90;99.90;;;;;;5073026;28;20029;-70
2022/12/28 01:31:01;;;;;;;5.35;3.35;;;7.90;99.90;;;;;;5101100;27;20097;-71
2022/12/28 01:33:26;;;;;;;7.10;3.50;;;7.90;99.90;;;;;;5064962;28;20020;-71
2022/12/28 01:35:52;;;;;;;5.15;3.05;;;7.90;99.90;;;;;;5092041;27;20120;-70
2022/12/28 01:38:18;;;;;;;9.80;4.45;;;7.90;99.90;;;;;;5062629;28;20036;-71
2022/12/28 01:40:43;;;;;;;5.72;3.63;;;8.00;99.90;;;;;;5067486;28;20035;-70
2022/12/28 01:43:15;;;;;;;8.15;3.60;;;8.00;99.90;;;;;;5072624;28;20031;-70
2022/12/28 01:45:46;;;;;;;7.03;3.40;;;8.00;99.90;;;;;;5068844;28;20040;-70
2022/12/28 01:48:20;;;;;;;7.22;3.42;;;8.10;99.90;;;;;;5068908;28;20029;-70
2022/12/28 01:50:48;;;;;;;8.10;3.55;;;8.00;99.90;;;;;;5067366;28;20028;-70
2022/12/28 01:53:14;;;;;;;7.35;3.45;;;8.10;99.90;;;;;;5073143;28;20033;-70
2022/12/28 01:55:41;;;;;;;5.20;3.25;;;8.10;99.90;;;;;;5065990;28;20028;-70
2022/12/28 01:58:30;;;;;;;6.50;2.95;;;8.10;99.90;;;;;;5069837;28;20381;-71
2022/12/28 02:00:56;;;;;;;5.88;3.20;;;8.10;99.90;;;;;;5067261;28;20055;-70
2022/12/28 02:03:25;;;;;;;7.78;3.33;;;8.20;99.90;;;;;;5076893;28;20445;-70
2022/12/28 02:05:55;;;;;;;6.65;4.30;;;8.30;99.90;;;;;;5070405;28;20031;-70
2022/12/28 02:08:32;;;;;;;6.03;3.05;;;8.30;99.90;;;;;;5081547;28;20025;-70
2022/12/28 02:10:58;;;;;;;7.93;3.55;;;8.30;99.90;;;;;;5073476;28;20025;-70
2022/12/28 02:13:25;;;;;;;3.67;3.08;;;8.30;99.90;;;;;;5073453;28;20373;-70
2022/12/28 02:15:50;;;;;;;8.55;3.50;;;8.30;99.90;;;;;;5071328;28;20032;-70
2022/12/28 02:18:18;;;;;;;6.65;3.70;;;8.30;99.90;;;;;;5071104;28;20033;-70
2022/12/28 02:20:56;;;;;;;5.75;3.20;;;8.30;99.90;;;;;;5071885;28;20024;-70
2022/12/28 02:23:42;;;;;;;4.30;2.95;;;8.30;99.90;;;;;;5068112;28;20033;-71
2022/12/28 02:26:29;;;;;;;7.60;3.55;;;8.30;99.90;;;;;;5073243;28;20099;-70
2022/12/28 02:29:37;;;;;;;7.30;2.95;;;8.30;99.90;;;;;;5101121;27;20036;-71
2022/12/28 02:32:09;;;;;;;6.32;3.40;;;8.40;99.90;;;;;;5067181;28;20020;-71
2022/12/28 02:34:56;;;;;;;4.47;2.88;;;8.40;99.90;;;;;;5070381;28;20028;-71
2022/12/28 02:37:45;;;;;;;5.70;3.08;;;8.50;99.90;;;;;;5068756;28;20076;-70
2022/12/28 02:40:21;;;;;;;7.95;3.30;;;8.50;99.90;;;;;;5072325;28;20741;-70
2022/12/28 02:42:48;;;;;;;4.78;2.90;;;8.50;99.90;;;;;;5068439;28;20058;-70
2022/12/28 02:51:31;;;;;;;4.57;3.75;;;8.50;99.90;;;;;;5063131;28;20461;-70
2022/12/28 02:57:45;;;;;;;4.50;3.20;;;8.60;99.90;;;;;;5065735;28;20056;-70
2022/12/28 03:00:24;;;;;;;6.55;3.05;;;8.60;99.90;;;;;;5064432;28;20087;-70
2022/12/28 03:03:21;;;;;;;6.82;3.72;;;8.60;99.90;;;;;;5072623;28;20030;-70
2022/12/28 03:08:54;;;;;;;5.35;4.00;;;8.50;99.90;;;;;;5075092;28;20039;-70
2022/12/28 03:11:31;;;;;;;8.20;4.03;;;8.60;99.90;;;;;;5062088;28;20061;-70
2022/12/28 03:14:04;;;;;;;7.50;3.92;;;8.60;99.90;;;;;;5074606;28;20016;-70
2022/12/28 03:33:18;;;;;;;9.10;4.85;;;8.60;99.90;;;;;;5065680;28;20042;-71
2022/12/28 03:35:48;;;;;;;6.07;4.40;;;8.60;99.90;;;;;;5071488;28;20120;-72
2022/12/28 03:38:26;;;;;;;8.45;5.25;;;8.60;99.90;;;;;;5073153;28;20040;-71
2022/12/28 03:40:58;;;;;;;15.18;5.20;;;8.60;99.90;;;;;;5070407;28;20594;-71
2022/12/28 03:43:41;;;;;;;10.88;5.50;;;8.60;99.90;;;;;;5064320;28;20028;-72
2022/12/28 03:46:07;;;;;;;;;;;8.70;99.90;;;;;;5067561;28;20039;-70
2022/12/28 03:48:34;;;;;;;9.55;5.28;;;8.60;99.90;;;;;;5070960;28;19910;-71
2022/12/28 03:51:00;;;;;;;11.13;5.43;;;8.70;99.90;;;;;;5067622;28;20455;-72
2022/12/28 03:53:40;;;;;;;8.25;5.68;;;8.70;99.90;;;;;;5073054;28;20106;-71
2022/12/28 03:56:11;;;;;;;6.80;5.10;;;8.70;99.90;;;;;;5068673;28;20025;-71
2022/12/28 03:58:37;;;;;;;11.95;6.43;;;8.70;99.90;;;;;;5068562;28;20021;-72
2022/12/28 04:01:03;;;;;;;11.98;5.70;;;8.70;99.90;;;;;;5072460;28;20020;-71
2022/12/28 04:03:28;;;;;;;12.88;5.68;;;8.70;99.90;;;;;;5066620;28;20021;-71
2022/12/28 04:05:55;;;;;;;9.52;5.53;;;8.70;99.90;;;;;;5070302;28;20078;-70
2022/12/28 04:08:20;;;;;;;9.30;5.70;;;8.70;99.90;;;;;;5064612;28;20024;-71
2022/12/28 04:10:46;;;;;;;12.48;5.65;;;8.70;99.90;;;;;;5066516;28;20040;-71
2022/12/28 04:13:12;;;;;;;11.23;6.13;;;8.70;99.90;;;;;;5064231;28;20036;-72
2022/12/28 04:15:37;;;;;;;14.30;6.35;;;8.80;99.90;;;;;;5069557;28;20044;-71
2022/12/28 04:18:03;;;;;;;11.90;5.10;;;8.80;99.90;;;;;;5069081;28;20145;-71
2022/12/28 04:20:29;;;;;;;11.48;5.75;;;8.80;99.90;;;;;;5071021;28;20032;-71
2022/12/28 04:22:55;;;;;;;10.05;5.50;;;8.80;99.90;;;;;;5068486;28;20021;-71
2022/12/28 04:25:20;;;;;;;7.68;4.80;;;8.80;99.90;;;;;;5075954;28;20396;-71
2022/12/28 04:27:46;;;;;;;5.07;4.25;;;8.80;99.90;;;;;;5065246;28;20033;-71
2022/12/28 04:30:12;;;;;;;9.38;4.90;;;8.80;99.90;;;;;;5072188;28;20482;-71
2022/12/28 04:32:37;;;;;;;7.03;4.90;;;8.90;99.90;;;;;;5060279;28;20456;-71
2022/12/28 04:35:03;;;;;;;10.77;4.93;;;8.90;99.90;;;;;;5073611;28;20381;-71
2022/12/28 04:37:29;;;;;;;13.18;4.78;;;8.90;99.90;;;;;;5067393;28;20037;-72
2022/12/28 04:39:54;;;;;;;7.88;4.25;;;9.00;99.90;;;;;;5063702;28;20048;-71
2022/12/28 04:42:20;;;;;;;7.45;4.88;;;9.00;99.90;;;;;;5079013;28;20064;-72
2022/12/28 04:44:45;;;;;;;8.15;5.43;;;9.00;99.90;;;;;;5077349;28;20512;-73
2022/12/28 04:47:12;;;;;;;8.80;4.90;;;9.00;99.90;;;;;;5068449;28;20452;-71
2022/12/28 04:49:38;;;;;;;7.32;4.82;;;9.10;99.90;;;;;;5064706;28;20420;-71
2022/12/28 04:52:04;;;;;;;7.00;4.57;;;9.00;99.90;;;;;;5064201;28;20024;-71
2022/12/28 04:54:29;;;;;;;7.57;4.63;;;9.10;99.90;;;;;;5066129;28;20075;-71
2022/12/28 04:56:55;;;;;;;8.73;4.15;;;9.10;99.90;;;;;;5069943;28;20024;-72
2022/12/28 04:59:21;;;;;;;9.77;4.82;;;9.10;99.90;;;;;;5064880;28;20067;-71
2022/12/28 05:01:46;;;;;;;7.68;3.90;;;9.10;99.90;;;;;;5080561;28;20039;-70
2022/12/28 05:04:12;;;;;;;7.72;3.95;;;9.10;99.90;;;;;;5073611;28;20135;-71
2022/12/28 05:06:38;;;;;;;12.68;5.30;;;9.20;99.90;;;;;;5075130;28;20379;-71
2022/12/28 05:09:03;;;;;;;9.55;4.47;;;9.20;99.90;;;;;;5066946;28;20028;-72
2022/12/28 05:11:30;;;;;;;10.32;4.93;;;9.20;99.90;;;;;;5074903;28;20033;-71
2022/12/28 05:13:56;;;;;;;10.80;5.30;;;9.20;99.90;;;;;;5081368;28;20094;-71
2022/12/28 05:16:23;;;;;;;9.93;4.20;;;9.20;99.90;;;;;;5066412;28;20492;-71
2022/12/28 05:18:49;;;;;;;7.72;4.90;;;9.20;99.90;;;;;;5073083;28;20032;-70
2022/12/28 05:21:20;;;;;;;9.18;4.63;;;9.20;99.90;;;;;;5066757;28;20044;-71
2022/12/28 05:23:47;;;;;;;11.55;5.07;;;9.30;99.90;;;;;;5078663;28;20025;-71
2022/12/28 05:26:16;;;;;;;7.93;4.60;;;9.20;99.90;;;;;;5071352;28;20112;-70
2022/12/28 05:28:41;;;;;;;9.57;4.50;;;9.30;99.90;;;;;;5072421;28;20186;-70
2022/12/28 05:31:12;;;;;;;11.57;4.50;;;9.30;99.90;;;;;;5077424;28;20103;-72
2022/12/28 05:33:38;;;;;;;8.10;4.43;;;9.20;99.90;;;;;;5073103;28;20032;-70
2022/12/28 05:36:24;;;;;;;7.43;4.28;;;9.20;99.90;;;;;;5069586;28;20029;-72
2022/12/28 05:38:50;;;;;;;7.38;4.22;;;9.20;99.90;;;;;;5073725;28;20032;-70
2022/12/28 05:41:22;;;;;;;6.43;3.72;;;9.30;99.90;;;;;;5072904;28;20025;-70
2022/12/28 05:43:48;;;;;;;8.50;4.10;;;9.30;99.90;;;;;;5078233;28;20090;-70
2022/12/28 05:46:18;;;;;;;6.57;4.05;;;9.40;99.90;;;;;;5074956;28;20024;-71
2022/12/28 05:48:44;;;;;;;9.80;4.15;;;9.40;99.90;;;;;;5071134;28;20484;-71
2022/12/28 05:51:15;;;;;;;5.90;4.30;;;9.30;99.90;;;;;;5069970;28;20096;-70
2022/12/28 05:53:41;;;;;;;6.38;3.53;;;9.30;99.90;;;;;;5075748;28;20028;-71
2022/12/28 05:56:15;;;;;;;6.95;3.63;;;9.40;99.90;;;;;;5069272;28;20453;-71
2022/12/28 05:58:42;;;;;;;7.07;3.45;;;9.40;99.90;;;;;;5082822;28;20099;-70
2022/12/28 06:01:18;;;;;;;4.40;3.10;;;9.50;99.90;;;;;;5071216;28;20017;-70
2022/12/28 06:03:45;;;;;;;7.03;3.30;;;9.40;99.90;;;;;;5074832;28;20052;-71
2022/12/28 06:06:13;;;;;;;6.20;3.17;;;9.40;99.90;;;;;;5067695;28;20016;-70
2022/12/28 06:08:40;;;;;;;5.68;3.17;;;9.40;99.90;;;;;;5068433;28;20029;-72
2022/12/28 06:11:08;;;;;;;6.63;2.95;;;9.50;99.90;;;;;;5070899;28;20064;-71
2022/12/28 06:13:34;;;;;;;6.28;2.70;;;9.40;99.90;;;;;;5072296;28;20027;-71
2022/12/28 06:16:21;;;;;;;4.60;2.45;;;9.50;99.90;;;;;;5071871;28;20028;-71
2022/12/28 06:18:47;;;;;;;2.55;2.10;;;9.50;99.90;;;;;;5069937;28;20044;-71
2022/12/28 06:21:16;;;;;;;3.47;2.15;;;9.50;99.90;;;;;;5069697;28;20161;-71
2022/12/28 06:23:43;;;;;;;3.45;2.60;;;9.60;99.90;;;;;;5071226;28;20125;-70
2022/12/28 06:26:11;;;;;;;3.85;2.60;;;9.60;99.90;;;;;;5067602;28;20024;-71
2022/12/28 06:28:37;;;;;;;5.90;2.78;;;9.60;99.90;;;;;;5072810;28;20508;-72
2022/12/28 06:31:15;;;;;;;7.38;2.60;;;9.60;99.90;;;;;;5078043;28;20035;-71
2022/12/28 06:33:42;;;;;;;4.25;2.45;;;9.50;99.90;;;;;;5074263;28;20047;-70
2022/12/28 06:36:12;;;;;;;3.17;2.30;;;9.50;99.90;;;;;;5073621;28;20104;-70
2022/12/28 06:38:38;;;;;;;3.83;2.30;;;9.50;99.90;;;;;;5068517;28;20499;-71
2022/12/28 06:41:05;;;;;;;5.68;2.40;;;9.60;99.90;;;;;;5064265;28;20020;-70
2022/12/28 06:43:32;;;;;;;3.70;2.67;;;9.60;99.90;;;;;;5071800;28;20025;-70
2022/12/28 06:45:59;;;;;;;5.07;3.03;;;9.60;99.90;;;;;;5073318;28;20016;-71
2022/12/28 06:48:25;;;;;;;7.15;3.10;;;9.60;99.90;;;;;;5063804;28;20027;-71
2022/12/28 06:51:04;;;;;;;4.20;2.58;;;9.60;99.90;;;;;;5068846;28;20120;-71
2022/12/28 06:53:35;;;;;;;3.67;3.00;;;9.60;99.90;;;;;;5070034;28;20025;-70
2022/12/28 06:56:07;;;;;;;4.13;2.78;;;9.60;99.90;;;;;;5065264;28;20028;-70
2022/12/28 06:58:33;;;;;;;5.57;2.53;;;9.60;99.90;;;;;;5068951;28;20119;-71
2022/12/28 07:01:07;;;;;;;6.47;2.97;;;9.50;99.90;;;;;;5069338;28;20095;-70
2022/12/28 07:03:32;;;;;;;5.20;2.65;;;9.50;99.90;;;;;;5074092;28;20082;-71
2022/12/28 07:06:03;;;;;;;3.65;2.67;;;9.50;99.90;;;;;;5078806;28;20024;-71
2022/12/28 07:08:29;;;;;;;5.32;2.78;;;9.50;99.90;;;;;;5065921;28;20351;-70
2022/12/28 07:11:00;;;;;;;3.13;2.83;;;9.50;99.90;;;;;;5071533;28;20456;-71
2022/12/28 07:13:26;;;;;;;4.78;2.97;;;9.50;99.90;;;;;;5071483;28;20048;-70
2022/12/28 07:15:51;;;;;;;6.25;3.13;;;9.60;99.90;;;;;;5075682;28;20075;-70
2022/12/28 07:18:17;;;;;;;6.93;3.45;;;9.60;99.90;;;;;;5069770;28;20037;-71
2022/12/28 07:20:42;;;;;;;4.13;2.90;;;9.50;99.90;;;;;;5073277;28;20708;-71
2022/12/28 07:23:08;;;;;;;3.38;3.08;;;9.50;99.90;;;;;;5064134;28;20028;-71
2022/12/28 07:25:34;;;;;;;3.65;3.05;;;9.70;99.90;;;;;;5066996;28;20027;-71
2022/12/28 07:28:00;;;;;;;3.30;2.97;;;9.60;99.90;;;;;;5064215;28;20060;-70
2022/12/28 07:30:26;;;;;;;3.65;3.28;;;9.60;99.90;;;;;;5068995;28;20093;-71
2022/12/28 07:32:51;;;;;;;4.05;3.03;;;9.60;99.90;;;;;;5074016;28;20028;-71
2022/12/28 07:35:17;;;;;;;4.32;3.60;;;9.70;99.90;;;;;;5064894;28;20013;-71
2022/12/28 07:37:42;;;;;;;7.45;3.55;;;9.70;99.90;;;;;;5073635;28;20047;-72
2022/12/28 07:40:09;;;;;;;7.68;3.05;;;9.70;99.90;;;;;;5066565;28;20021;-71
2022/12/28 07:42:35;;;;;;;5.78;4.25;;;9.60;99.90;;;;;;5075461;28;20113;-71
2022/12/28 07:45:00;;;;;;;4.53;3.75;;;9.70;99.90;;;;;;5070087;28;20106;-70
2022/12/28 07:47:26;;;;;;;4.55;3.67;;;9.70;99.90;;;;;;5068770;28;20025;-70
2022/12/28 07:49:51;;;;;;;7.25;3.75;;;9.70;99.90;;;;;;5062571;28;20075;-71
2022/12/28 07:52:17;;;;;;;5.20;4.57;;;9.70;99.90;;;;;;5067873;28;20029;-70
2022/12/28 07:54:43;;;;;;;6.60;4.28;;;9.70;99.90;;;;;;5062832;28;20032;-70
2022/12/28 07:57:08;;;;;;;5.30;3.95;;;9.70;99.90;;;;;;5068655;28;20115;-70
2022/12/28 07:59:34;;;;;;;6.78;3.88;;;9.70;99.90;;;;;;5061546;28;20085;-70
2022/12/28 08:01:59;;;;;;;6.55;4.18;;;9.70;99.90;;;;;;5062254;28;20495;-70
2022/12/28 08:04:25;;;;;;;7.38;4.07;;;9.70;99.90;;;;;;5070911;28;20024;-71
2022/12/28 08:06:51;;;;;;;9.00;4.70;;;9.70;99.90;;;;;;5065645;28;20035;-71
2022/12/28 08:09:16;;;;;;;7.00;3.97;;;9.70;99.90;;;;;;5069729;28;20024;-70
2022/12/28 08:11:44;;;;;;;8.45;4.13;;;9.70;99.90;;;;;;5070481;28;20385;-71
2022/12/28 08:14:10;;;;;;;7.40;4.00;;;9.80;99.90;;;;;;5068575;28;20120;-70
2022/12/28 08:16:38;;;;;;;6.47;3.92;;;9.80;99.90;;;;;;5066963;28;20456;-71
2022/12/28 08:19:04;;;;;;;6.72;3.78;;;9.70;99.90;;;;;;5065368;28;20102;-71
2022/12/28 08:21:37;;;;;;;5.35;4.35;;;9.80;99.90;;;;;;5067923;28;20441;-71
2022/12/28 08:24:03;;;;;;;8.05;3.80;;;9.70;99.90;;;;;;5068719;28;20038;-71
2022/12/28 08:26:34;;;;;;;7.13;3.83;;;9.80;99.90;;;;;;5069415;28;20485;-71
2022/12/28 08:29:02;;;;;;;6.13;3.65;;;9.80;99.90;;;;;;5070709;28;20480;-71
2022/12/28 08:31:30;;;;;;;4.40;3.95;;;9.80;99.90;;;;;;5065322;28;20358;-71
2022/12/28 08:33:57;;;;;;;4.97;4.47;;;9.80;99.90;;;;;;5074801;28;20032;-71
2022/12/28 08:36:23;;;;;;;6.60;4.57;;;9.90;99.90;;;;;;5067583;28;20063;-71
2022/12/28 08:38:49;;;;;;;6.40;4.45;;;9.90;99.90;;;;;;5075717;28;20060;-71
2022/12/28 08:41:18;;;;;;;5.57;4.32;;;9.80;99.90;;;;;;5067433;28;20035;-71
2022/12/28 08:43:45;;;;;;;6.10;4.00;;;9.90;99.90;;;;;;5075123;28;20040;-71
2022/12/28 08:46:19;;;;;;;6.60;3.60;;;9.90;99.90;;;;;;5076765;28;20016;-71
2022/12/28 08:48:46;;;;;;;6.82;3.22;;;9.90;99.90;;;;;;5079755;28;20093;-71
2022/12/28 08:51:17;;;;;;;5.05;3.33;;;9.90;99.90;;;;;;5061773;28;20424;-71
2022/12/28 08:53:44;;;;;;;5.10;3.78;;;9.90;99.90;;;;;;5075892;28;20078;-71
2022/12/28 08:56:14;;;;;;;3.25;2.95;;;9.90;99.90;;;;;;5070534;28;20021;-71
2022/12/28 08:58:41;;;;;;;6.00;3.47;;;9.90;99.90;;;;;;5066477;28;20067;-71
2022/12/28 09:01:12;;;;;;;4.15;3.15;;;9.90;99.90;;;;;;5069729;28;20480;-71
2022/12/28 09:03:39;;;;;;;6.70;3.53;;;9.90;99.90;;;;;;5076200;28;20147;-72
2022/12/28 09:06:07;;;;;;;4.97;3.08;;;9.90;99.90;;;;;;5076844;28;20047;-71
2022/12/28 09:08:33;;;;;;;5.57;3.50;;;9.90;99.90;;;;;;5073228;28;20052;-71
2022/12/28 09:11:04;;;;;;;8.43;4.38;;;9.90;99.90;;;;;;5069859;28;20457;-71
2022/12/28 09:13:29;;;;;;;7.18;3.30;;;10.00;99.90;;;;;;5070887;28;20079;-71
2022/12/28 09:16:01;;;;;;;8.57;3.85;;;9.90;99.90;;;;;;5102731;27;20481;-73
2022/12/28 09:18:27;;;;;;;5.18;3.65;;;9.90;99.90;;;;;;5068530;28;20067;-71
2022/12/28 09:20:52;;;;;;;4.05;2.75;;;9.90;99.90;;;;;;5072421;28;20038;-70
2022/12/28 09:23:18;;;;;;;6.93;3.60;;;10.00;99.90;;;;;;5075175;28;20103;-71
2022/12/28 09:25:44;;;;;;;7.90;3.65;;;10.00;99.90;;;;;;5076449;28;20073;-71
2022/12/28 09:28:10;;;;;;;9.35;3.97;;;10.00;99.90;;;;;;5073238;28;20093;-70
2022/12/28 09:30:35;;;;;;;5.72;3.58;;;10.00;99.90;;;;;;5072031;28;20017;-71
2022/12/28 09:35:59;;;;;;;10.70;4.15;;;10.10;99.90;;;;;;5062172;28;20041;-70
2022/12/28 09:38:25;;;;;;;6.75;3.83;;;10.10;99.90;;;;;;5072551;28;20541;-71
2022/12/28 09:40:50;;;;;;;7.22;4.40;;;10.10;99.90;;;;;;5072129;28;20520;-71
2022/12/28 09:43:16;;;;;;;7.50;4.03;;;10.10;99.90;;;;;;5072932;28;20024;-70
2022/12/28 09:45:44;;;;;;;7.32;4.10;;;10.10;99.90;;;;;;5073297;28;20111;-71
2022/12/28 09:48:15;;;;;;;5.18;4.15;;;10.10;99.90;;;;;;5058754;28;20071;-71
2022/12/28 09:50:42;;;;;;;7.43;4.30;;;10.10;99.90;;;;;;5070095;28;20087;-71
2022/12/28 09:53:29;;;;;;;6.65;4.70;;;10.10;99.90;;;;;;5073627;28;20025;-71
2022/12/28 09:56:32;;;;;;;6.03;4.40;;;10.10;99.90;;;;;;5069158;28;20159;-70
2022/12/28 09:58:58;;;;;;;7.40;4.18;;;10.10;99.90;;;;;;5068997;28;20032;-71
2022/12/28 10:01:25;;;;;;;5.10;3.70;;;10.20;99.90;;;;;;5070870;28;20020;-71
2022/12/28 10:03:51;;;;;;;4.97;3.90;;;10.30;99.90;;;;;;5074276;28;20138;-70
2022/12/28 10:06:34;;;;;;;5.10;3.70;;;10.30;99.90;;;;;;5065133;28;20020;-70
2022/12/28 10:09:01;;;;;;;3.97;3.58;;;10.30;99.90;;;;;;5061717;28;20055;-70
2022/12/28 10:11:33;;;;;;;4.78;3.67;;;10.30;99.90;;;;;;5065266;28;20025;-70
2022/12/28 10:14:01;;;;;;;6.20;3.17;;;10.30;99.90;;;;;;5068783;28;20439;-70
2022/12/28 10:16:31;;;;;;;5.00;4.10;;;10.20;99.90;;;;;;5070527;28;20036;-70
2022/12/28 10:18:58;;;;;;;4.55;3.60;;;10.20;99.90;;;;;;5063829;28;20057;-70
2022/12/28 10:21:26;;;;;;;5.63;3.97;;;10.30;99.90;;;;;;5069938;28;20496;-70
2022/12/28 10:23:53;;;;;;;7.95;2.90;;;10.30;99.90;;;;;;5072956;28;20029;-71
2022/12/28 10:26:20;;;;;;;4.63;2.78;;;10.40;99.90;;;;;;5073904;28;20062;-71
2022/12/28 10:28:56;;;;;;;8.32;3.17;;;10.30;99.90;;;;;;5076886;28;20025;-71
2022/12/28 10:31:37;;;;;;;7.40;3.25;;;10.40;99.90;;;;;;5065993;28;20381;-70
2022/12/28 10:34:19;;;;;;;6.13;3.05;;;10.40;99.90;;;;;;5105015;27;20546;-70
2022/12/28 10:36:48;;;;;;;7.38;3.08;;;10.40;99.90;;;;;;5063237;28;20056;-72
2022/12/28 10:39:20;;;;;;;4.68;2.95;;;10.50;99.90;;;;;;5068055;28;20097;-70
2022/12/28 10:41:46;;;;;;;;;;;10.50;99.90;;;;;;5071875;28;20017;-68
2022/12/28 10:44:26;;;;;;;5.93;3.45;;;10.50;99.90;;;;;;5065826;28;20478;-71
2022/12/28 10:46:53;;;;;;;6.78;3.33;;;10.50;99.90;;;;;;5072688;28;20028;-70
2022/12/28 10:49:20;;;;;;;7.38;3.10;;;10.50;99.90;;;;;;5068129;28;20082;-71
2022/12/28 10:52:12;;;;;;;3.47;2.88;;;10.50;99.90;;;;;;5069346;28;20031;-70
2022/12/28 10:54:37;;;;;;;4.50;3.30;;;10.50;99.90;;;;;;5077894;28;20024;-71
2022/12/28 10:57:03;;;;;;;5.82;3.28;;;10.50;99.90;;;;;;5072040;28;20060;-70
2022/12/28 10:59:30;;;;;;;7.68;3.83;;;10.40;99.90;;;;;;5073237;28;20024;-71
2022/12/28 11:02:35;;;;;;;7.97;3.47;;;10.40;99.90;;;;;;5071117;28;20068;-70
2022/12/28 11:05:03;;;;;;;8.23;3.30;;;10.50;99.90;;;;;;5057916;28;20029;-71
2022/12/28 11:07:36;;;;;;;5.82;3.33;;;10.50;99.90;;;;;;5049282;28;20481;-72
2022/12/28 11:10:14;;;;;;;9.77;3.60;;;10.40;99.90;;;;;;5050095;28;20428;-71
2022/12/28 11:12:44;;;;;;;6.28;3.20;;;10.50;99.90;;;;;;5065208;28;20107;-71
2022/12/28 11:15:16;;;;;;;7.05;3.30;;;10.40;99.90;;;;;;5069498;28;20028;-71
2022/12/28 11:17:43;;;;;;;5.03;3.22;;;10.60;99.90;;;;;;5073220;28;20089;-71
2022/12/28 11:20:21;;;;;;;6.95;2.83;;;10.50;99.90;;;;;;5066077;28;20054;-70
2022/12/28 11:22:47;;;;;;;7.82;3.22;;;10.50;99.90;;;;;;5066898;28;20032;-70
2022/12/28 11:25:30;;;;;;;6.75;3.03;;;10.60;99.90;;;;;;5073655;28;20490;-70
2022/12/28 11:27:56;;;;;;;4.00;2.40;;;10.60;99.90;;;;;;5069015;28;20035;-71
2022/12/28 11:30:22;;;;;;;7.68;2.88;;;10.60;99.90;;;;;;5068878;28;20021;-70
2022/12/28 11:32:57;;;;;;;7.05;2.80;;;10.70;99.90;;;;;;5070624;28;20859;-70
2022/12/28 11:35:29;;;;;;;5.60;2.70;;;10.70;99.90;;;;;;5067081;28;20029;-72
2022/12/28 11:37:59;;;;;;;;;;;10.80;99.90;;;;;;5066687;28;20036;-68
2022/12/28 11:40:43;;;;;;;5.93;3.20;;;10.70;99.90;;;;;;5069773;28;19908;-71
2022/12/28 11:43:29;;;;;;;9.63;3.10;;;10.80;99.90;;;;;;5062777;28;20029;-71
2022/12/28 11:45:56;;;;;;;4.30;2.67;;;10.70;99.90;;;;;;5062006;28;20503;-72
2022/12/28 11:48:40;;;;;;;7.45;3.03;;;10.70;99.90;;;;;;5066443;28;20508;-72
2022/12/28 11:51:18;;;;;;;3.88;2.40;;;10.80;99.90;;;;;;5070454;28;20111;-71
2022/12/28 11:53:43;;;;;;;5.03;2.65;;;10.90;99.90;;;;;;5065619;28;20538;-71
2022/12/28 11:56:18;;;;;;;6.47;2.88;;;10.90;99.90;;;;;;5074877;28;20044;-72
2022/12/28 11:58:44;;;;;;;4.07;2.50;;;10.80;99.90;;;;;;5073200;28;20033;-71
2022/12/28 12:01:28;;;;;;;4.15;2.30;;;10.80;99.90;;;;;;5078029;28;20559;-71
2022/12/28 12:03:57;;;;;;;7.75;2.42;;;10.90;99.90;;;;;;5060255;28;20055;-72
2022/12/28 12:06:43;;;;;;;4.80;2.28;;;10.80;99.90;;;;;;5068823;28;20461;-72
2022/12/28 12:09:22;;;;;;;9.63;2.83;;;10.80;99.90;;;;;;5061513;28;20051;-71
2022/12/28 12:11:51;;;;;;;8.13;2.58;;;10.80;99.90;;;;;;5074016;28;20016;-72
2022/12/28 12:14:26;;;;;;;3.03;2.17;;;10.80;99.90;;;;;;5066912;28;20431;-72
2022/12/28 12:17:35;;;;;;;8.63;2.83;;;10.80;99.90;;;;;;5071731;28;20402;-71
2022/12/28 12:20:07;;;;;;;9.48;2.85;;;10.90;99.90;;;;;;5053561;28;20075;-72
2022/12/28 12:22:47;;;;;;;11.50;3.00;;;10.90;99.90;;;;;;5065710;28;20024;-72
2022/12/28 12:25:26;;;;;;;4.05;2.15;;;10.90;99.90;;;;;;5076787;28;20033;-72
2022/12/28 12:28:05;;;;;;;8.88;2.33;;;10.90;99.90;;;;;;5065312;28;20114;-71
2022/12/28 12:30:31;;;;;;;8.27;2.45;;;10.80;99.90;;;;;;5065944;28;20107;-71
2022/12/28 12:33:11;;;;;;;5.13;1.80;;;10.90;99.90;;;;;;5064640;28;20358;-71
2022/12/28 12:35:48;;;;;;;5.93;2.35;;;10.90;99.90;;;;;;5062427;28;20017;-72
2022/12/28 12:38:52;;;;;;;3.97;1.90;;;10.90;99.90;;;;;;5069990;28;20118;-71
2022/12/28 12:41:29;;;;;;;6.13;2.60;;;10.80;99.90;;;;;;5067974;28;20035;-72
2022/12/28 12:44:23;;;;;;;6.45;2.10;;;10.80;99.90;;;;;;5099315;28;20060;-71
2022/12/28 12:47:18;;;;;;;7.43;2.30;;;10.80;99.90;;;;;;5073444;28;20043;-73
2022/12/28 12:49:59;;;;;;;8.05;2.05;;;10.90;99.90;;;;;;5097435;28;20041;-72
2022/12/28 12:52:32;;;;;;;6.82;2.38;;;10.80;99.90;;;;;;5067280;28;20437;-72
2022/12/28 12:55:35;;;;;;;7.93;1.90;;;10.90;99.90;;;;;;5074952;28;20913;-73
2022/12/28 12:58:06;;;;;;;7.97;2.30;;;10.90;99.90;;;;;;5063521;28;20041;-72
2022/12/28 13:00:51;;;;;;;6.90;2.28;;;10.90;99.90;;;;;;5069303;28;20016;-71
2022/12/28 13:03:20;;;;;;;5.28;2.10;;;11.00;99.90;;;;;;5069731;28;20028;-72
2022/12/28 13:05:52;;;;;;;5.80;2.10;;;10.90;99.90;;;;;;5070364;28;20028;-71
2022/12/28 13:08:39;;;;;;;5.15;1.92;;;11.00;99.90;;;;;;5068480;28;20442;-71
2022/12/28 13:11:09;;;;;;;5.20;2.00;;;11.00;99.90;;;;;;5068787;28;20354;-71
2022/12/28 13:13:37;;;;;;;7.65;2.10;;;11.00;99.90;;;;;;5066898;28;20031;-71
2022/12/28 13:16:07;;;;;;;6.85;2.38;;;11.00;99.90;;;;;;5067038;28;20047;-71
2022/12/28 13:18:33;;;;;;;6.60;2.30;;;11.00;99.90;;;;;;5069944;28;20448;-71
2022/12/28 13:21:01;;;;;;;4.13;1.90;;;11.00;99.90;;;;;;5067261;28;20473;-72
2022/12/28 13:23:29;;;;;;;6.85;2.28;;;11.00;99.90;;;;;;5068642;28;20021;-72
2022/12/28 13:25:59;;;;;;;7.88;2.33;;;11.00;99.90;;;;;;5072176;28;20059;-71
2022/12/28 13:28:32;;;;;;;11.88;2.60;;;11.10;99.90;;;;;;5071201;28;20043;-71
2022/12/28 13:31:07;;;;;;;;;;;11.10;99.90;;;;;;5072322;28;20020;-68
2022/12/28 13:33:32;;;;;;;6.40;2.38;;;11.00;99.90;;;;;;5067171;28;19908;-71
2022/12/28 13:36:19;;;;;;;6.25;2.35;;;11.00;99.90;;;;;;5070154;28;20025;-70
2022/12/28 13:38:44;;;;;;;6.60;2.25;;;11.00;99.90;;;;;;5078005;28;20036;-71
2022/12/28 13:41:20;;;;;;;5.60;2.13;;;11.00;99.90;;;;;;5075011;28;20078;-71